Terminal Aerodrome Forecast
Issued by NWS

Home | Current Version | Previous Version | Text Only | Print | Product List | Glossary On
Versions: 1 2 3 4 5 6 7 8 9 10 11 12 13 14 15 16
000
FTUS41 KCAR 190219 AAA
TAFBHB
TAF AMD
KBHB 190219Z 1902/1924 04004KT P6SM OVC035
     FM190600 09005KT P6SM OVC025
     FM190800 14005KT 2SM -SN OVC015
     FM191100 15005KT 5SM -SHSN OVC015
     FM191500 20005KT P6SM BKN022
     FM191900 26004KT P6SM BKN035=

USA.gov is the U.S. government's official web portal to all federal, state and local government web resources and services.